createdAt,value
2023-05-21T00:00:22.862Z,15.30
2023-05-21T00:02:51.385Z,15.35
2023-05-21T00:05:18.496Z,15.31
2023-05-21T00:07:45.889Z,15.23
2023-05-21T00:10:12.781Z,15.29
2023-05-21T00:12:39.153Z,15.13
2023-05-21T00:15:06.330Z,15.08
2023-05-21T00:17:32.793Z,15.04
2023-05-21T00:20:00.069Z,15.03
2023-05-21T00:22:26.756Z,15.06
2023-05-21T00:24:53.151Z,14.86
2023-05-21T00:27:19.533Z,14.86
2023-05-21T00:29:45.932Z,14.82
2023-05-21T00:32:12.364Z,14.92
2023-05-21T00:34:39.749Z,14.91
2023-05-21T00:37:06.818Z,14.96
2023-05-21T00:39:33.790Z,15.09
2023-05-21T00:42:00.466Z,15.27
2023-05-21T00:44:28.165Z,15.23
2023-05-21T00:46:56.958Z,15.17
2023-05-21T00:49:24.440Z,14.96
2023-05-21T00:51:53.030Z,14.99
2023-05-21T00:54:19.423Z,14.92
2023-05-21T00:56:46.010Z,14.98
2023-05-21T00:59:12.507Z,14.88
2023-05-21T01:01:39.112Z,14.79
2023-05-21T01:04:05.460Z,14.84
2023-05-21T01:06:34.984Z,14.90
2023-05-21T01:09:03.920Z,14.80
2023-05-21T01:11:39.039Z,14.80
2023-05-21T01:14:07.963Z,14.93
2023-05-21T01:16:36.208Z,14.92
2023-05-21T01:19:03.565Z,14.92
2023-05-21T01:21:30.186Z,14.85
2023-05-21T01:23:56.703Z,14.82
2023-05-21T01:26:26.612Z,14.79
2023-05-21T01:28:53.630Z,14.80
2023-05-21T01:31:26.819Z,14.85
2023-05-21T01:33:56.897Z,14.84
2023-05-21T01:36:31.049Z,14.75
2023-05-21T01:39:01.702Z,14.70
2023-05-21T01:41:29.417Z,14.66
2023-05-21T01:43:56.669Z,14.76
2023-05-21T01:46:25.657Z,14.78
2023-05-21T01:48:52.717Z,14.70
2023-05-21T01:51:19.207Z,14.74
2023-05-21T01:53:45.705Z,14.86
2023-05-21T01:56:12.941Z,14.68
2023-05-21T01:58:39.340Z,14.60
2023-05-21T02:01:05.972Z,14.72
2023-05-21T02:03:32.944Z,14.82
2023-05-21T02:05:59.548Z,14.86
2023-05-21T02:08:27.967Z,14.86
2023-05-21T02:10:54.357Z,14.88
2023-05-21T02:13:21.946Z,14.81
2023-05-21T02:15:50.011Z,14.70
2023-05-21T02:18:16.704Z,14.69
2023-05-21T02:20:43.801Z,14.75
2023-05-21T02:23:10.142Z,14.78
2023-05-21T02:25:36.770Z,14.73
2023-05-21T02:28:03.746Z,14.61
2023-05-21T02:30:32.492Z,14.50
2023-05-21T02:32:59.666Z,14.53
2023-05-21T02:35:27.133Z,14.57
2023-05-21T02:37:53.499Z,14.49
2023-05-21T02:40:19.977Z,14.34
2023-05-21T02:42:46.397Z,14.34
2023-05-21T02:45:13.757Z,14.34
2023-05-21T02:47:40.816Z,14.28
2023-05-21T02:50:08.218Z,14.29
2023-05-21T02:52:34.717Z,14.10
2023-05-21T02:55:01.168Z,14.13
2023-05-21T02:57:27.543Z,14.18
2023-05-21T02:59:53.909Z,14.11
2023-05-21T03:02:20.318Z,14.13
2023-05-21T03:04:46.813Z,14.03
2023-05-21T03:07:14.184Z,14.07
2023-05-21T03:09:42.035Z,14.06
2023-05-21T03:12:08.906Z,14.14
2023-05-21T03:14:35.637Z,14.08
2023-05-21T03:17:08.484Z,14.04
2023-05-21T03:19:36.035Z,14.03
2023-05-21T03:22:03.336Z,14.05
2023-05-21T03:24:33.381Z,14.03
2023-05-21T03:27:03.628Z,13.98
2023-05-21T03:29:29.990Z,14.00
2023-05-21T03:31:58.160Z,13.92
2023-05-21T03:34:25.601Z,13.86
2023-05-21T03:36:52.055Z,13.93
2023-05-21T03:39:18.738Z,13.98
2023-05-21T03:41:45.111Z,13.98
2023-05-21T03:44:32.408Z,14.04
2023-05-21T03:46:59.275Z,13.96
2023-05-21T03:49:28.372Z,14.04
2023-05-21T03:51:55.629Z,14.03
2023-05-21T03:54:22.043Z,13.77
2023-05-21T03:56:48.441Z,13.69
2023-05-21T03:59:14.872Z,13.70
2023-05-21T04:01:41.403Z,13.60
2023-05-21T04:04:07.968Z,13.64
2023-05-21T04:06:35.033Z,13.64
2023-05-21T04:09:01.594Z,13.61
2023-05-21T04:11:28.063Z,13.65
2023-05-21T04:13:57.578Z,13.74
2023-05-21T04:16:25.716Z,13.72
2023-05-21T04:18:52.349Z,13.63
2023-05-21T04:21:18.744Z,13.72
2023-05-21T04:23:45.402Z,13.74
2023-05-21T04:26:12.819Z,13.86
2023-05-21T04:28:42.062Z,13.86
2023-05-21T04:31:09.278Z,13.75
2023-05-21T04:33:35.885Z,13.76
2023-05-21T04:36:03.847Z,13.76
2023-05-21T04:38:30.241Z,13.79
2023-05-21T04:40:59.935Z,13.97
2023-05-21T04:43:26.776Z,14.03
2023-05-21T04:45:55.626Z,13.98
2023-05-21T04:48:25.136Z,13.99
2023-05-21T04:50:52.067Z,13.93
2023-05-21T04:53:18.833Z,13.96
2023-05-21T04:55:47.292Z,13.86
2023-05-21T04:58:14.685Z,13.90
2023-05-21T05:00:46.007Z,13.88
2023-05-21T05:03:13.338Z,14.04
2023-05-21T05:05:39.951Z,14.15
2023-05-21T05:08:06.865Z,14.25
2023-05-21T05:10:33.236Z,14.34
2023-05-21T05:12:59.716Z,14.48
2023-05-21T05:15:26.783Z,14.49
2023-05-21T05:17:54.905Z,14.48
2023-05-21T05:20:22.527Z,14.58
2023-05-21T05:22:48.895Z,14.55
2023-05-21T05:25:15.238Z,14.64
2023-05-21T05:27:41.592Z,14.59
2023-05-21T05:30:11.288Z,14.75
2023-05-21T05:32:37.775Z,14.89
2023-05-21T05:35:04.621Z,14.92
2023-05-21T05:37:31.548Z,15.11
2023-05-21T05:39:57.905Z,15.16
2023-05-21T05:42:24.266Z,15.35
2023-05-21T05:44:51.573Z,15.47
2023-05-21T05:47:17.899Z,15.52
2023-05-21T05:49:44.301Z,15.65
2023-05-21T05:52:10.799Z,15.43
2023-05-21T05:54:37.244Z,15.30
2023-05-21T05:57:04.005Z,15.29
2023-05-21T05:59:30.814Z,15.30
2023-05-21T06:01:57.205Z,15.43
2023-05-21T06:04:30.032Z,15.46
2023-05-21T06:07:00.494Z,15.33
2023-05-21T06:09:26.868Z,15.27
2023-05-21T06:11:53.228Z,15.28
2023-05-21T06:14:19.726Z,15.37
2023-05-21T06:16:46.132Z,15.43
2023-05-21T06:19:12.644Z,15.51
2023-05-21T06:21:39.199Z,15.53
2023-05-21T06:24:05.814Z,15.57
2023-05-21T06:26:32.397Z,15.75
2023-05-21T06:28:58.840Z,15.79
2023-05-21T06:31:25.615Z,15.88
2023-05-21T06:33:52.126Z,16.01
2023-05-21T06:36:18.750Z,15.94
2023-05-21T06:38:45.116Z,16.11
2023-05-21T06:41:11.474Z,16.25
2023-05-21T06:43:37.967Z,16.36
2023-05-21T06:46:05.667Z,16.62
2023-05-21T06:48:32.170Z,16.51
2023-05-21T06:50:58.637Z,16.61
2023-05-21T06:53:26.372Z,16.63
2023-05-21T06:55:53.836Z,16.44
2023-05-21T06:58:21.730Z,16.36
2023-05-21T07:00:48.946Z,16.41
2023-05-21T07:03:15.867Z,16.65
2023-05-21T07:05:42.505Z,16.51
2023-05-21T07:08:10.665Z,16.46
2023-05-21T07:10:38.256Z,16.51
2023-05-21T07:13:04.632Z,16.62
2023-05-21T07:15:31.013Z,16.53
2023-05-21T07:17:57.500Z,16.66
2023-05-21T07:20:23.940Z,16.79
2023-05-21T07:22:50.357Z,16.85
2023-05-21T07:25:16.704Z,16.96
2023-05-21T07:27:43.112Z,17.04
2023-05-21T07:30:09.725Z,17.15
2023-05-21T07:32:36.158Z,17.32
2023-05-21T07:35:02.605Z,17.35
2023-05-21T07:37:29.098Z,17.18
2023-05-21T07:39:58.730Z,17.24
2023-05-21T07:42:25.792Z,17.18
2023-05-21T07:44:52.153Z,17.29
2023-05-21T07:47:19.058Z,17.32
2023-05-21T07:49:45.721Z,17.42
2023-05-21T07:52:12.296Z,17.53
2023-05-21T07:54:42.248Z,17.54
2023-05-21T07:57:08.633Z,17.40
2023-05-21T07:59:35.037Z,17.34
2023-05-21T08:02:01.473Z,17.25
2023-05-21T08:04:27.945Z,17.22
2023-05-21T08:06:54.387Z,17.30
2023-05-21T08:09:20.854Z,17.18
2023-05-21T08:11:47.629Z,17.48
2023-05-21T08:14:13.969Z,17.69
2023-05-21T08:16:40.524Z,17.67
2023-05-21T08:19:07.554Z,17.58
2023-05-21T08:21:34.553Z,17.66
2023-05-21T08:24:01.266Z,17.86
2023-05-21T08:26:27.723Z,18.00
2023-05-21T08:28:54.404Z,18.06
2023-05-21T08:31:21.336Z,18.18
2023-05-21T08:33:51.789Z,18.19
2023-05-21T08:36:18.416Z,18.23
2023-05-21T08:38:45.380Z,18.29
2023-05-21T08:41:12.395Z,18.25
2023-05-21T08:43:41.835Z,18.48
2023-05-21T08:46:08.602Z,18.28
2023-05-21T08:48:36.658Z,18.40
2023-05-21T08:51:03.277Z,18.62
2023-05-21T08:53:29.871Z,18.68
2023-05-21T08:55:57.487Z,18.49
2023-05-21T08:58:24.063Z,18.62
2023-05-21T09:00:51.199Z,18.68
2023-05-21T09:03:17.877Z,18.78
2023-05-21T09:05:45.696Z,18.87
2023-05-21T09:08:18.471Z,19.02
2023-05-21T09:10:50.130Z,18.81
2023-05-21T09:13:17.954Z,18.88
2023-05-21T09:15:45.199Z,18.89
2023-05-21T09:18:12.478Z,19.30
2023-05-21T09:20:38.990Z,19.66
2023-05-21T09:23:17.195Z,19.61
2023-05-21T09:25:47.557Z,19.86
2023-05-21T09:28:14.861Z,20.02
2023-05-21T09:30:47.974Z,19.86
2023-05-21T09:33:27.362Z,20.05
2023-05-21T09:35:53.921Z,20.27
2023-05-21T09:38:22.110Z,20.31
2023-05-21T09:40:49.158Z,20.61
2023-05-21T09:43:18.889Z,20.80
2023-05-21T09:45:55.456Z,20.83
2023-05-21T09:48:32.561Z,21.06
2023-05-21T09:51:16.558Z,21.56
2023-05-21T09:53:48.870Z,21.80
2023-05-21T09:56:15.392Z,22.08
2023-05-21T09:58:41.884Z,21.80
2023-05-21T10:01:10.990Z,21.97
2023-05-21T10:03:39.779Z,22.14
2023-05-21T10:06:08.202Z,22.11
2023-05-21T10:08:36.748Z,22.34
2023-05-21T10:11:05.225Z,22.29
2023-05-21T10:13:32.724Z,22.31
2023-05-21T10:16:01.378Z,22.12
2023-05-21T10:18:28.272Z,21.64
2023-05-21T10:20:55.920Z,21.48
2023-05-21T10:23:23.500Z,21.81
2023-05-21T10:25:49.897Z,22.18
2023-05-21T10:28:17.343Z,22.27
2023-05-21T10:30:44.526Z,21.90
2023-05-21T10:33:13.065Z,21.33
2023-05-21T10:35:40.333Z,21.21
2023-05-21T10:38:09.135Z,21.46
2023-05-21T10:40:36.434Z,21.72
2023-05-21T10:43:12.174Z,22.15
2023-05-21T10:45:58.155Z,22.39
2023-05-21T10:48:27.454Z,22.45
2023-05-21T10:51:15.623Z,22.43
2023-05-21T10:54:00.828Z,22.70
2023-05-21T10:56:36.582Z,22.93
2023-05-21T10:59:11.004Z,22.37
2023-05-21T11:01:38.304Z,22.17
2023-05-21T11:04:06.041Z,22.01
2023-05-21T11:06:32.528Z,22.46
2023-05-21T11:09:17.251Z,22.60
2023-05-21T11:11:51.145Z,22.52
2023-05-21T11:14:32.601Z,22.62
2023-05-21T11:16:59.925Z,23.16
2023-05-21T11:19:35.905Z,23.29
2023-05-21T11:22:05.161Z,23.27
2023-05-21T11:24:32.535Z,23.28
2023-05-21T11:27:01.556Z,23.21
2023-05-21T11:29:40.959Z,23.49
2023-05-21T11:32:12.217Z,23.66
2023-05-21T11:34:40.099Z,24.25
2023-05-21T11:37:20.829Z,24.74
2023-05-21T11:39:47.811Z,25.07
2023-05-21T11:42:33.896Z,25.34
2023-05-21T11:45:01.581Z,25.81
2023-05-21T11:47:31.104Z,26.03
2023-05-21T11:49:59.000Z,26.23
2023-05-21T11:52:26.895Z,25.51
2023-05-21T11:54:59.930Z,25.16
2023-05-21T11:57:31.299Z,25.51
2023-05-21T11:59:58.524Z,25.67
2023-05-21T12:02:27.159Z,25.87
2023-05-21T12:04:56.420Z,26.08
2023-05-21T12:07:22.788Z,26.32
2023-05-21T12:09:50.235Z,26.81
2023-05-21T12:12:21.425Z,27.31
2023-05-21T12:14:49.106Z,27.24
2023-05-21T12:17:16.595Z,27.80
2023-05-21T12:19:43.183Z,27.64
2023-05-21T12:22:10.427Z,27.66
2023-05-21T12:24:37.914Z,28.14
2023-05-21T12:27:11.771Z,28.75
2023-05-21T12:29:38.933Z,28.65
2023-05-21T12:32:10.544Z,28.43
2023-05-21T12:34:47.148Z,28.89
2023-05-21T12:37:22.700Z,27.92
2023-05-21T12:39:50.182Z,27.82
2023-05-21T12:42:16.922Z,28.23
2023-05-21T12:44:49.794Z,28.40
2023-05-21T12:47:16.359Z,28.16
2023-05-21T12:49:44.953Z,28.23
2023-05-21T12:52:12.864Z,29.01
2023-05-21T12:54:40.653Z,29.23
2023-05-21T12:57:11.242Z,29.20
2023-05-21T12:59:49.801Z,29.27
2023-05-21T13:02:27.486Z,28.81
2023-05-21T13:04:58.050Z,28.64
2023-05-21T13:07:25.615Z,28.44
2023-05-21T13:09:56.461Z,28.43
2023-05-21T13:12:26.443Z,28.49
2023-05-21T13:14:54.228Z,28.89
2023-05-21T13:17:21.969Z,29.21
2023-05-21T13:20:08.139Z,29.30
2023-05-21T13:22:45.460Z,29.57
2023-05-21T13:25:15.602Z,29.72
2023-05-21T13:27:42.889Z,29.64
2023-05-21T13:30:09.621Z,29.46
2023-05-21T13:32:37.340Z,29.75
2023-05-21T13:35:04.055Z,29.55
2023-05-21T13:37:30.795Z,29.13
2023-05-21T13:39:57.979Z,29.05
2023-05-21T13:42:25.347Z,28.78
2023-05-21T13:44:55.223Z,28.54
2023-05-21T13:47:23.524Z,28.60
2023-05-21T13:49:49.922Z,28.22
2023-05-21T13:52:17.056Z,28.50
2023-05-21T13:54:43.659Z,28.68
2023-05-21T13:57:10.092Z,28.37
2023-05-21T13:59:36.493Z,28.44
2023-05-21T14:02:03.074Z,28.24
2023-05-21T14:04:29.530Z,27.95
2023-05-21T14:06:56.841Z,27.73
2023-05-21T14:09:23.520Z,27.50
2023-05-21T14:11:49.867Z,27.80
2023-05-21T14:14:19.039Z,27.70
2023-05-21T14:16:47.411Z,27.70
2023-05-21T14:19:13.998Z,28.09
2023-05-21T14:21:40.607Z,27.95
2023-05-21T14:24:58.148Z,28.15
2023-05-21T14:27:25.311Z,28.52
2023-05-21T14:29:51.840Z,28.57
2023-05-21T14:32:19.248Z,28.71
2023-05-21T14:34:45.785Z,28.36
2023-05-21T14:37:15.446Z,28.46
2023-05-21T14:39:41.915Z,28.96
2023-05-21T14:42:08.450Z,29.09
2023-05-21T14:44:35.518Z,29.39
2023-05-21T14:47:02.104Z,29.58
2023-05-21T14:49:28.619Z,29.82
2023-05-21T14:51:55.282Z,30.12
2023-05-21T14:54:21.708Z,30.42
2023-05-21T14:56:48.211Z,30.32
2023-05-21T14:59:14.675Z,30.27
2023-05-21T15:01:41.230Z,30.09
2023-05-21T15:04:08.185Z,30.09
2023-05-21T15:06:34.886Z,29.82
2023-05-21T15:09:01.281Z,29.54
2023-05-21T15:11:27.988Z,29.19
2023-05-21T15:13:55.360Z,29.43
2023-05-21T15:16:30.493Z,29.36
2023-05-21T15:18:57.247Z,29.41
2023-05-21T15:21:25.737Z,29.43
2023-05-21T15:23:53.981Z,29.19
2023-05-21T15:26:21.403Z,29.54
2023-05-21T15:28:47.794Z,29.33
2023-05-21T15:31:14.144Z,29.02
2023-05-21T15:33:40.532Z,28.63
2023-05-21T15:36:07.163Z,28.52
2023-05-21T15:38:33.606Z,28.66
2023-05-21T15:41:03.384Z,28.37
2023-05-21T15:43:30.279Z,28.05
2023-05-21T15:45:56.730Z,27.98
2023-05-21T15:48:23.247Z,27.76
2023-05-21T15:50:50.036Z,27.62
2023-05-21T15:53:16.945Z,27.45
2023-05-21T15:55:43.494Z,27.41
2023-05-21T15:58:09.867Z,27.24
2023-05-21T16:00:36.415Z,26.95
2023-05-21T16:03:03.014Z,26.96
2023-05-21T16:05:29.627Z,26.99
2023-05-21T16:07:56.782Z,27.11
2023-05-21T16:10:23.488Z,27.18
2023-05-21T16:12:50.137Z,27.27
2023-05-21T16:15:16.981Z,27.42
2023-05-21T16:17:43.405Z,27.35
2023-05-21T16:20:10.485Z,27.30
2023-05-21T16:22:36.940Z,27.14
2023-05-21T16:25:03.546Z,26.98
2023-05-21T16:27:29.964Z,27.01
2023-05-21T16:29:59.200Z,26.89
2023-05-21T16:32:29.039Z,26.73
2023-05-21T16:34:56.898Z,26.73
2023-05-21T16:37:23.295Z,26.73
2023-05-21T16:39:49.720Z,26.78
2023-05-21T16:42:16.125Z,26.87
2023-05-21T16:44:42.626Z,26.65
2023-05-21T16:47:09.365Z,26.30
2023-05-21T16:49:36.022Z,26.33
2023-05-21T16:52:03.202Z,26.38
2023-05-21T16:54:29.649Z,26.23
2023-05-21T16:56:57.113Z,26.04
2023-05-21T16:59:23.583Z,26.06
2023-05-21T17:01:50.056Z,26.01
2023-05-21T17:04:17.236Z,25.90
2023-05-21T17:06:43.867Z,25.73
2023-05-21T17:09:11.056Z,25.64
2023-05-21T17:11:37.607Z,25.61
2023-05-21T17:14:04.205Z,25.64
2023-05-21T17:16:31.325Z,25.61
2023-05-21T17:18:57.910Z,25.59
2023-05-21T17:21:26.687Z,25.59
2023-05-21T17:23:53.210Z,25.59
2023-05-21T17:26:19.765Z,25.42
2023-05-21T17:28:49.161Z,25.33
2023-05-21T17:31:16.796Z,25.43
2023-05-21T17:33:43.212Z,25.29
2023-05-21T17:36:10.093Z,25.33
2023-05-21T17:38:36.595Z,25.39
2023-05-21T17:41:03.025Z,25.31
2023-05-21T17:43:31.789Z,25.25
2023-05-21T17:45:58.445Z,25.28
2023-05-21T17:48:28.088Z,25.27
2023-05-21T17:50:55.643Z,25.32
2023-05-21T17:53:22.790Z,25.25
2023-05-21T17:55:49.348Z,25.15
2023-05-21T17:58:15.776Z,25.13
2023-05-21T18:00:45.591Z,24.98
2023-05-21T18:03:12.073Z,24.97
2023-05-21T18:05:38.817Z,25.12
2023-05-21T18:08:06.988Z,24.99
2023-05-21T18:10:33.722Z,25.01
2023-05-21T18:13:00.105Z,24.99
2023-05-21T18:15:27.078Z,25.02
2023-05-21T18:17:53.510Z,24.71
2023-05-21T18:20:20.475Z,24.49
2023-05-21T18:22:47.022Z,24.43
2023-05-21T18:25:13.518Z,24.25
2023-05-21T18:27:39.982Z,24.19
2023-05-21T18:30:07.045Z,23.98
2023-05-21T18:32:34.851Z,23.90
2023-05-21T18:35:01.508Z,23.73
2023-05-21T18:37:29.263Z,23.67
2023-05-21T18:39:55.855Z,23.76
2023-05-21T18:42:22.341Z,23.82
2023-05-21T18:44:51.111Z,23.74
2023-05-21T18:47:17.531Z,23.34
2023-05-21T18:49:43.999Z,23.22
2023-05-21T18:52:10.428Z,23.08
2023-05-21T18:54:36.827Z,23.14
2023-05-21T18:57:03.290Z,23.23
2023-05-21T18:59:29.873Z,23.29
2023-05-21T19:01:56.559Z,23.30
2023-05-21T19:04:23.063Z,23.16
2023-05-21T19:06:49.452Z,23.11
2023-05-21T19:09:15.894Z,23.06
2023-05-21T19:11:42.279Z,22.99
2023-05-21T19:14:08.758Z,22.69
2023-05-21T19:16:35.326Z,22.47
2023-05-21T19:19:03.232Z,22.18
2023-05-21T19:21:29.852Z,22.05
2023-05-21T19:23:56.860Z,22.25
2023-05-21T19:26:23.424Z,22.34
2023-05-21T19:28:54.397Z,22.34
2023-05-21T19:31:21.910Z,22.27
2023-05-21T19:33:48.410Z,22.15
2023-05-21T19:36:14.982Z,22.11
2023-05-21T19:38:48.311Z,22.05
2023-05-21T19:41:18.498Z,21.99
2023-05-21T19:43:45.209Z,21.71
2023-05-21T19:46:11.898Z,21.72
2023-05-21T19:48:38.747Z,21.70
2023-05-21T19:51:05.152Z,21.74
2023-05-21T19:53:31.745Z,21.64
2023-05-21T19:55:58.225Z,21.59
2023-05-21T19:58:27.016Z,21.54
2023-05-21T20:00:58.429Z,21.44
2023-05-21T20:03:26.965Z,21.47
2023-05-21T20:05:54.210Z,21.45
2023-05-21T20:08:21.020Z,21.31
2023-05-21T20:10:49.661Z,21.26
2023-05-21T20:13:18.085Z,21.17
2023-05-21T20:15:44.498Z,21.14
2023-05-21T20:18:12.857Z,21.13
2023-05-21T20:20:40.910Z,21.17
2023-05-21T20:23:07.738Z,20.94
2023-05-21T20:25:34.304Z,20.87
2023-05-21T20:28:05.058Z,20.83
2023-05-21T20:30:32.314Z,20.77
2023-05-21T20:33:00.509Z,20.79
2023-05-21T20:35:27.689Z,20.81
2023-05-21T20:37:55.315Z,20.82
2023-05-21T20:40:21.828Z,20.67
2023-05-21T20:42:50.549Z,20.64
2023-05-21T20:45:17.162Z,20.64
2023-05-21T20:47:43.840Z,20.66
2023-05-21T20:50:12.099Z,20.63
2023-05-21T20:52:38.602Z,20.53
2023-05-21T20:55:05.336Z,20.33
2023-05-21T20:57:31.778Z,20.27
2023-05-21T20:59:58.193Z,20.09
2023-05-21T21:02:24.628Z,20.11
2023-05-21T21:04:51.938Z,20.11
2023-05-21T21:07:18.415Z,19.97
2023-05-21T21:09:48.616Z,19.83
2023-05-21T21:12:26.007Z,19.82
2023-05-21T21:14:53.235Z,19.73
2023-05-21T21:17:19.695Z,19.67
2023-05-21T21:19:46.163Z,19.68
2023-05-21T21:22:12.593Z,19.70
2023-05-21T21:24:38.986Z,19.79
2023-05-21T21:27:05.536Z,19.72
2023-05-21T21:29:32.000Z,19.85
2023-05-21T21:31:58.450Z,19.74
2023-05-21T21:34:25.273Z,19.70
2023-05-21T21:36:53.576Z,19.74
2023-05-21T21:39:20.003Z,19.71
2023-05-21T21:41:46.400Z,19.64
2023-05-21T21:44:13.179Z,19.58
2023-05-21T21:46:39.649Z,19.58
2023-05-21T21:49:06.031Z,19.41
2023-05-21T21:51:34.004Z,19.34
2023-05-21T21:54:00.458Z,19.32
2023-05-21T21:56:27.647Z,19.26
2023-05-21T21:58:54.014Z,19.34
2023-05-21T22:01:20.615Z,19.40
2023-05-21T22:03:47.155Z,19.32
2023-05-21T22:06:13.665Z,19.17
2023-05-21T22:08:40.077Z,19.15
2023-05-21T22:11:06.681Z,19.23
2023-05-21T22:13:34.397Z,19.19
2023-05-21T22:16:01.980Z,19.12
2023-05-21T22:18:40.087Z,19.05
2023-05-21T22:21:09.580Z,18.98
2023-05-21T22:23:36.939Z,18.92
2023-05-21T22:26:03.639Z,18.78
2023-05-21T22:28:30.000Z,18.68
2023-05-21T22:30:56.821Z,18.63
2023-05-21T22:33:23.327Z,18.58
2023-05-21T22:35:49.766Z,18.52
2023-05-21T22:38:17.801Z,18.56
2023-05-21T22:40:44.251Z,18.52
2023-05-21T22:43:10.736Z,18.53
2023-05-21T22:45:38.236Z,18.47
2023-05-21T22:48:07.365Z,18.49
2023-05-21T22:50:34.279Z,18.43
2023-05-21T22:53:00.701Z,18.40
2023-05-21T22:55:28.026Z,18.34
2023-05-21T22:57:54.778Z,18.26
2023-05-21T23:00:21.288Z,18.23
2023-05-21T23:02:48.320Z,18.27
2023-05-21T23:05:14.941Z,18.30
2023-05-21T23:07:41.938Z,18.18
2023-05-21T23:10:08.569Z,18.13
2023-05-21T23:12:35.140Z,18.08
2023-05-21T23:15:03.160Z,18.16
2023-05-21T23:17:29.537Z,18.17
2023-05-21T23:19:56.567Z,18.18
2023-05-21T23:22:22.975Z,18.20
2023-05-21T23:24:49.422Z,18.27
2023-05-21T23:27:15.858Z,18.22
2023-05-21T23:29:42.329Z,18.15
2023-05-21T23:32:09.036Z,17.93
2023-05-21T23:34:35.859Z,17.89
2023-05-21T23:37:02.265Z,17.90
2023-05-21T23:39:28.813Z,17.96
2023-05-21T23:41:55.371Z,17.83
2023-05-21T23:44:21.782Z,17.78
2023-05-21T23:46:48.379Z,17.55
2023-05-21T23:49:16.023Z,17.50
2023-05-21T23:51:42.501Z,17.46
2023-05-21T23:54:08.981Z,17.31
2023-05-21T23:56:35.526Z,17.32
2023-05-21T23:59:02.110Z,17.22
